createdAt,value
2023-04-30T00:01:27.824Z,7.87
2023-04-30T00:03:54.734Z,7.54
2023-04-30T00:06:21.799Z,7.40
2023-04-30T00:08:48.541Z,7.49
2023-04-30T00:11:15.564Z,7.62
2023-04-30T00:13:43.341Z,7.49
2023-04-30T00:16:10.098Z,7.45
2023-04-30T00:18:38.180Z,7.48
2023-04-30T00:21:05.097Z,7.45
2023-04-30T00:23:31.854Z,7.47
2023-04-30T00:25:58.551Z,7.45
2023-04-30T00:28:25.358Z,7.38
2023-04-30T00:30:52.057Z,7.29
2023-04-30T00:33:18.741Z,7.27
2023-04-30T00:35:45.536Z,7.04
2023-04-30T00:38:12.356Z,7.03
2023-04-30T00:40:40.771Z,6.94
2023-04-30T00:43:07.439Z,6.93
2023-04-30T00:45:34.111Z,6.99
2023-04-30T00:48:00.995Z,6.96
2023-04-30T00:50:27.848Z,6.86
2023-04-30T00:52:54.640Z,6.84
2023-04-30T00:55:21.872Z,6.85
2023-04-30T00:57:49.039Z,6.92
2023-04-30T01:02:51.180Z,6.90
2023-04-30T01:05:18.016Z,6.78
2023-04-30T01:07:46.800Z,6.75
2023-04-30T01:10:14.831Z,6.76
2023-04-30T01:12:49.100Z,6.84
2023-04-30T01:15:19.903Z,6.91
2023-04-30T01:18:19.865Z,6.81
2023-04-30T01:21:05.830Z,6.72
2023-04-30T01:23:49.159Z,6.61
2023-04-30T01:26:36.396Z,6.58
2023-04-30T01:29:04.519Z,6.63
2023-04-30T01:31:31.648Z,6.59
2023-04-30T01:33:58.856Z,6.45
2023-04-30T01:37:05.287Z,6.39
2023-04-30T01:40:12.984Z,6.36
2023-04-30T01:42:53.371Z,6.34
2023-04-30T01:46:16.069Z,6.49
2023-04-30T01:49:00.053Z,6.33
2023-04-30T01:51:43.179Z,6.32
2023-04-30T01:54:23.261Z,6.31
2023-04-30T01:57:04.828Z,6.17
2023-04-30T01:59:33.694Z,6.21
2023-04-30T02:02:01.170Z,6.04
2023-04-30T02:04:28.040Z,6.09
2023-04-30T02:06:54.904Z,6.18
2023-04-30T02:09:24.665Z,6.07
2023-04-30T02:11:51.992Z,5.84
2023-04-30T02:14:18.813Z,5.93
2023-04-30T02:16:46.680Z,5.86
2023-04-30T02:19:13.580Z,5.79
2023-04-30T02:21:40.583Z,5.78
2023-04-30T02:24:08.141Z,5.78
2023-04-30T02:26:35.207Z,5.67
2023-04-30T02:29:01.991Z,5.58
2023-04-30T02:31:32.939Z,5.57
2023-04-30T02:34:02.060Z,5.59
2023-04-30T02:36:28.894Z,5.54
2023-04-30T02:38:56.960Z,5.45
2023-04-30T02:41:23.664Z,5.56
2023-04-30T02:43:50.477Z,5.42
2023-04-30T02:46:17.319Z,5.44
2023-04-30T02:48:44.187Z,5.42
2023-04-30T02:51:10.990Z,5.51
2023-04-30T02:53:37.908Z,5.49
2023-04-30T02:56:05.316Z,5.50
2023-04-30T02:58:32.027Z,5.43
2023-04-30T03:00:58.753Z,5.55
2023-04-30T03:03:25.773Z,5.48
2023-04-30T03:05:53.170Z,5.37
2023-04-30T03:08:20.348Z,5.37
2023-04-30T03:10:47.449Z,5.44
2023-04-30T03:13:15.030Z,5.43
2023-04-30T03:15:41.873Z,5.37
2023-04-30T03:18:08.660Z,5.38
2023-04-30T03:20:36.237Z,5.37
2023-04-30T03:23:03.618Z,5.40
2023-04-30T03:25:30.395Z,5.34
2023-04-30T03:27:57.742Z,5.30
2023-04-30T03:30:25.618Z,5.25
2023-04-30T03:32:52.436Z,5.27
2023-04-30T03:35:19.533Z,5.18
2023-04-30T03:37:46.306Z,5.20
2023-04-30T03:40:13.587Z,5.21
2023-04-30T03:42:41.993Z,5.17
2023-04-30T03:45:09.826Z,5.15
2023-04-30T03:47:37.434Z,5.19
2023-04-30T03:50:04.620Z,5.10
2023-04-30T03:52:32.127Z,5.14
2023-04-30T03:54:59.135Z,5.05
2023-04-30T03:57:26.061Z,5.12
2023-04-30T03:59:52.970Z,4.97
2023-04-30T04:02:22.024Z,4.92
2023-04-30T04:04:49.198Z,4.88
2023-04-30T04:07:17.525Z,4.79
2023-04-30T04:09:44.369Z,4.66
2023-04-30T04:12:11.165Z,4.78
2023-04-30T04:14:38.035Z,4.83
2023-04-30T04:17:06.872Z,4.78
2023-04-30T04:19:33.586Z,4.55
2023-04-30T04:22:00.364Z,4.55
2023-04-30T04:24:27.208Z,4.62
2023-04-30T04:26:54.662Z,4.66
2023-04-30T04:29:22.206Z,4.72
2023-04-30T04:31:51.398Z,4.71
2023-04-30T04:34:20.316Z,4.79
2023-04-30T04:36:47.122Z,4.75
2023-04-30T04:39:14.005Z,4.68
2023-04-30T04:41:42.940Z,4.63
2023-04-30T04:44:09.782Z,4.71
2023-04-30T04:46:42.761Z,4.71
2023-04-30T04:49:10.703Z,4.66
2023-04-30T04:51:37.394Z,4.70
2023-04-30T04:54:04.262Z,4.42
2023-04-30T04:56:31.733Z,4.48
2023-04-30T04:58:59.697Z,4.61
2023-04-30T05:01:27.524Z,4.67
2023-04-30T05:03:54.777Z,4.77
2023-04-30T05:06:22.476Z,4.69
2023-04-30T05:08:49.220Z,4.62
2023-04-30T05:11:16.386Z,4.66
2023-04-30T05:13:43.882Z,4.71
2023-04-30T05:16:10.956Z,4.74
2023-04-30T05:18:37.788Z,4.87
2023-04-30T05:21:06.101Z,5.04
2023-04-30T05:23:34.193Z,5.17
2023-04-30T05:26:02.741Z,5.16
2023-04-30T05:28:30.662Z,5.42
2023-04-30T05:30:57.485Z,5.68
2023-04-30T05:33:24.279Z,5.79
2023-04-30T05:35:51.867Z,5.96
2023-04-30T05:38:19.598Z,6.03
2023-04-30T05:40:46.605Z,6.05
2023-04-30T05:43:13.462Z,6.17
2023-04-30T05:45:42.088Z,6.21
2023-04-30T05:48:09.736Z,6.35
2023-04-30T05:50:37.506Z,6.29
2023-04-30T05:53:04.936Z,6.29
2023-04-30T05:55:32.210Z,6.32
2023-04-30T05:57:59.150Z,6.41
2023-04-30T06:00:26.536Z,6.50
2023-04-30T06:02:54.325Z,6.45
2023-04-30T06:05:21.472Z,6.65
2023-04-30T06:07:48.397Z,6.81
2023-04-30T06:10:17.185Z,6.99
2023-04-30T06:12:44.237Z,7.15
2023-04-30T06:15:12.109Z,7.32
2023-04-30T06:17:38.813Z,7.58
2023-04-30T06:20:07.288Z,7.76
2023-04-30T06:22:34.783Z,7.96
2023-04-30T06:25:02.009Z,8.07
2023-04-30T06:27:29.897Z,8.25
2023-04-30T06:29:57.029Z,8.42
2023-04-30T06:32:24.035Z,8.57
2023-04-30T06:34:51.605Z,8.58
2023-04-30T06:37:19.150Z,8.81
2023-04-30T06:39:45.894Z,8.88
2023-04-30T06:42:12.795Z,8.91
2023-04-30T06:44:40.086Z,9.00
2023-04-30T06:47:07.250Z,9.17
2023-04-30T06:49:35.046Z,9.42
2023-04-30T06:52:01.990Z,9.52
2023-04-30T06:54:28.716Z,9.69
2023-04-30T06:56:57.688Z,9.85
2023-04-30T06:59:25.417Z,9.72
2023-04-30T07:01:53.913Z,9.88
2023-04-30T07:04:20.709Z,9.99
2023-04-30T07:06:47.681Z,10.04
2023-04-30T07:09:16.016Z,10.12
2023-04-30T07:11:45.123Z,10.25
2023-04-30T07:14:12.484Z,10.47
2023-04-30T07:16:40.418Z,10.49
2023-04-30T07:19:07.265Z,10.65
2023-04-30T07:21:33.982Z,10.77
2023-04-30T07:24:02.123Z,10.72
2023-04-30T07:26:28.855Z,10.44
2023-04-30T07:28:55.711Z,10.51
2023-04-30T07:31:22.456Z,10.61
2023-04-30T07:33:50.883Z,10.81
2023-04-30T07:36:19.646Z,11.12
2023-04-30T07:38:46.936Z,11.25
2023-04-30T07:41:14.603Z,11.35
2023-04-30T07:43:41.310Z,11.31
2023-04-30T07:46:08.577Z,11.57
2023-04-30T07:48:37.116Z,11.61
2023-04-30T07:51:06.487Z,11.48
2023-04-30T07:53:33.597Z,11.52
2023-04-30T07:56:00.522Z,11.50
2023-04-30T07:58:27.293Z,11.47
2023-04-30T08:00:55.254Z,11.62
2023-04-30T08:03:22.694Z,11.79
2023-04-30T08:05:50.314Z,11.80
2023-04-30T08:08:17.922Z,11.94
2023-04-30T08:10:44.698Z,12.07
2023-04-30T08:13:11.594Z,12.16
2023-04-30T08:15:40.492Z,12.20
2023-04-30T08:18:07.485Z,11.98
2023-04-30T08:20:35.991Z,11.99
2023-04-30T08:23:03.358Z,11.94
2023-04-30T08:25:31.921Z,12.06
2023-04-30T08:28:00.193Z,12.23
2023-04-30T08:30:27.009Z,12.19
2023-04-30T08:32:56.728Z,12.34
2023-04-30T08:35:25.411Z,12.53
2023-04-30T08:37:52.548Z,12.32
2023-04-30T08:40:19.694Z,12.48
2023-04-30T08:42:51.048Z,12.39
2023-04-30T08:45:18.508Z,12.77
2023-04-30T08:47:45.918Z,12.73
2023-04-30T08:50:13.598Z,13.05
2023-04-30T08:52:40.613Z,12.95
2023-04-30T08:55:08.483Z,12.82
2023-04-30T08:57:36.754Z,12.65
2023-04-30T09:00:04.623Z,12.84
2023-04-30T09:02:34.171Z,12.98
2023-04-30T09:05:02.660Z,12.97
2023-04-30T09:07:31.262Z,12.86
2023-04-30T09:10:01.097Z,12.91
2023-04-30T09:12:27.812Z,13.01
2023-04-30T09:15:05.671Z,13.27
2023-04-30T09:17:33.258Z,13.18
2023-04-30T09:20:12.003Z,13.33
2023-04-30T09:22:41.706Z,13.50
2023-04-30T09:25:10.040Z,13.65
2023-04-30T09:27:37.646Z,13.64
2023-04-30T09:30:05.082Z,13.54
2023-04-30T09:32:32.112Z,13.77
2023-04-30T09:34:58.898Z,14.10
2023-04-30T09:37:39.369Z,14.14
2023-04-30T09:40:07.030Z,13.98
2023-04-30T09:42:33.815Z,13.93
2023-04-30T09:45:01.830Z,13.84
2023-04-30T09:47:33.711Z,14.13
2023-04-30T09:50:02.464Z,13.98
2023-04-30T09:52:30.210Z,14.04
2023-04-30T09:54:57.408Z,14.21
2023-04-30T09:57:25.129Z,14.51
2023-04-30T09:59:53.828Z,14.49
2023-04-30T10:02:24.206Z,14.52
2023-04-30T10:04:55.764Z,14.72
2023-04-30T10:07:25.697Z,14.96
2023-04-30T10:10:09.541Z,14.88
2023-04-30T10:12:44.848Z,14.96
2023-04-30T10:15:29.234Z,14.94
2023-04-30T10:18:07.628Z,14.87
2023-04-30T10:20:39.580Z,14.98
2023-04-30T10:23:07.732Z,15.01
2023-04-30T10:25:34.744Z,15.11
2023-04-30T10:28:03.969Z,15.30
2023-04-30T10:30:32.345Z,15.55
2023-04-30T10:33:21.188Z,15.57
2023-04-30T10:35:55.264Z,15.31
2023-04-30T10:38:25.813Z,15.43
2023-04-30T10:41:00.011Z,15.70
2023-04-30T10:43:28.623Z,15.74
2023-04-30T10:46:01.459Z,15.72
2023-04-30T10:48:31.315Z,15.63
2023-04-30T10:50:59.847Z,15.53
2023-04-30T10:53:31.815Z,15.77
2023-04-30T10:56:09.942Z,15.50
2023-04-30T10:58:39.789Z,15.78
2023-04-30T11:01:12.401Z,16.04
2023-04-30T11:03:42.798Z,16.02
2023-04-30T11:06:14.406Z,15.87
2023-04-30T11:08:48.141Z,16.02
2023-04-30T11:11:21.697Z,15.88
2023-04-30T11:13:59.413Z,16.17
2023-04-30T11:16:31.212Z,16.20
2023-04-30T11:19:13.780Z,16.58
2023-04-30T11:22:06.927Z,16.47
2023-04-30T11:25:13.538Z,16.46
2023-04-30T11:27:47.276Z,16.33
2023-04-30T11:30:15.954Z,16.28
2023-04-30T11:32:46.663Z,16.57
2023-04-30T11:35:14.136Z,16.32
2023-04-30T11:37:46.086Z,16.38
2023-04-30T11:40:14.227Z,16.67
2023-04-30T11:42:45.939Z,16.88
2023-04-30T11:45:18.121Z,16.81
2023-04-30T11:47:47.500Z,16.74
2023-04-30T11:50:16.221Z,16.73
2023-04-30T11:52:43.979Z,16.78
2023-04-30T11:55:16.007Z,16.88
2023-04-30T12:00:17.774Z,16.77
2023-04-30T12:02:46.230Z,16.88
2023-04-30T12:05:17.577Z,16.98
2023-04-30T12:08:10.006Z,16.92
2023-04-30T12:10:36.769Z,17.10
2023-04-30T12:13:03.939Z,16.99
2023-04-30T12:15:30.640Z,17.07
2023-04-30T12:17:58.694Z,16.99
2023-04-30T12:20:28.484Z,17.13
2023-04-30T12:22:55.290Z,17.10
2023-04-30T12:25:23.108Z,17.28
2023-04-30T12:27:52.225Z,17.23
2023-04-30T12:30:25.091Z,17.46
2023-04-30T12:32:53.379Z,17.72
2023-04-30T12:35:21.969Z,17.84
2023-04-30T12:37:54.276Z,17.93
2023-04-30T12:40:26.669Z,17.74
2023-04-30T12:43:01.318Z,17.88
2023-04-30T12:46:06.455Z,17.88
2023-04-30T12:48:42.713Z,17.90
2023-04-30T12:51:10.353Z,17.75
2023-04-30T12:53:46.091Z,17.83
2023-04-30T12:56:19.962Z,18.05
2023-04-30T12:58:48.697Z,17.99
2023-04-30T13:01:17.801Z,17.66
2023-04-30T13:03:44.643Z,17.68
2023-04-30T13:06:11.878Z,17.91
2023-04-30T13:08:46.273Z,18.06
2023-04-30T13:11:17.107Z,18.33
2023-04-30T13:13:43.898Z,18.17
2023-04-30T13:16:10.831Z,17.94
2023-04-30T13:18:37.682Z,18.10
2023-04-30T13:21:04.560Z,17.93
2023-04-30T13:23:35.959Z,17.89
2023-04-30T13:26:08.221Z,17.95
2023-04-30T13:28:34.961Z,17.91
2023-04-30T13:31:02.988Z,17.96
2023-04-30T13:33:29.830Z,18.08
2023-04-30T13:35:56.603Z,18.19
2023-04-30T13:38:23.487Z,18.16
2023-04-30T13:40:50.425Z,17.94
2023-04-30T13:43:17.235Z,17.99
2023-04-30T13:45:44.015Z,17.35
2023-04-30T13:48:11.159Z,17.24
2023-04-30T13:50:38.017Z,17.59
2023-04-30T13:53:04.779Z,17.54
2023-04-30T13:55:32.474Z,17.83
2023-04-30T13:57:59.432Z,17.75
2023-04-30T14:00:26.831Z,17.82
2023-04-30T14:02:53.878Z,18.05
2023-04-30T14:05:20.736Z,18.23
2023-04-30T14:07:47.665Z,18.14
2023-04-30T14:10:14.514Z,18.34
2023-04-30T14:12:41.423Z,17.96
2023-04-30T14:15:08.588Z,18.00
2023-04-30T14:17:35.769Z,18.17
2023-04-30T14:20:02.861Z,18.23
2023-04-30T14:22:29.754Z,18.35
2023-04-30T14:24:56.692Z,18.50
2023-04-30T14:27:23.817Z,18.25
2023-04-30T14:29:50.660Z,18.02
2023-04-30T14:32:17.553Z,17.87
2023-04-30T14:34:45.023Z,17.98
2023-04-30T14:37:11.980Z,18.13
2023-04-30T14:39:38.708Z,18.22
2023-04-30T14:42:05.443Z,17.79
2023-04-30T14:44:32.886Z,17.92
2023-04-30T14:46:59.779Z,17.75
2023-04-30T14:49:27.092Z,17.79
2023-04-30T14:51:54.007Z,18.15
2023-04-30T14:54:21.049Z,18.25
2023-04-30T14:56:48.284Z,18.25
2023-04-30T14:59:15.588Z,18.26
2023-04-30T15:01:42.698Z,18.50
2023-04-30T15:04:09.797Z,18.40
2023-04-30T15:06:36.796Z,18.53
2023-04-30T15:09:04.169Z,18.60
2023-04-30T15:11:33.792Z,18.49
2023-04-30T15:14:01.044Z,18.37
2023-04-30T15:16:28.483Z,18.27
2023-04-30T15:18:55.410Z,18.46
2023-04-30T15:21:22.385Z,18.24
2023-04-30T15:23:50.603Z,17.93
2023-04-30T15:26:17.703Z,17.95
2023-04-30T15:28:44.590Z,18.09
2023-04-30T15:31:11.750Z,17.70
2023-04-30T15:33:42.419Z,18.02
2023-04-30T15:36:10.759Z,17.68
2023-04-30T15:38:37.680Z,17.37
2023-04-30T15:41:04.490Z,17.50
2023-04-30T15:43:32.588Z,17.82
2023-04-30T15:45:59.507Z,18.09
2023-04-30T15:48:26.314Z,18.15
2023-04-30T15:50:53.125Z,17.62
2023-04-30T15:54:23.675Z,17.93
2023-04-30T15:56:51.854Z,18.00
2023-04-30T16:01:44.798Z,17.80
2023-04-30T16:04:11.878Z,17.70
2023-04-30T16:06:38.771Z,17.76
2023-04-30T16:09:07.904Z,17.92
2023-04-30T16:11:35.504Z,18.32
2023-04-30T16:14:02.885Z,18.35
2023-04-30T16:16:29.850Z,18.44
2023-04-30T16:18:56.638Z,18.52
2023-04-30T16:21:24.113Z,19.01
2023-04-30T16:23:51.038Z,18.90
2023-04-30T16:26:18.010Z,18.60
2023-04-30T16:28:45.609Z,18.45
2023-04-30T16:31:14.286Z,18.70
2023-04-30T16:33:42.125Z,18.80
2023-04-30T16:36:08.962Z,18.86
2023-04-30T16:38:36.250Z,18.31
2023-04-30T16:41:03.184Z,17.84
2023-04-30T16:43:29.853Z,18.02
2023-04-30T16:45:56.631Z,17.73
2023-04-30T16:48:23.312Z,17.48
2023-04-30T16:50:50.020Z,17.46
2023-04-30T16:53:16.708Z,17.29
2023-04-30T16:55:43.856Z,17.21
2023-04-30T16:58:10.548Z,17.33
2023-04-30T17:00:37.215Z,17.24
2023-04-30T17:03:05.071Z,16.94
2023-04-30T17:05:32.192Z,17.06
2023-04-30T17:07:58.876Z,16.87
2023-04-30T17:10:26.826Z,16.76
2023-04-30T17:12:54.074Z,16.95
2023-04-30T17:15:20.832Z,16.89
2023-04-30T17:17:47.594Z,16.82
2023-04-30T17:20:14.274Z,16.78
2023-04-30T17:22:41.203Z,16.59
2023-04-30T17:25:08.521Z,16.68
2023-04-30T17:27:35.559Z,16.58
2023-04-30T17:30:02.650Z,16.42
2023-04-30T17:32:29.370Z,16.52
2023-04-30T17:34:56.171Z,16.39
2023-04-30T17:37:23.633Z,16.18
2023-04-30T17:39:50.347Z,16.00
2023-04-30T17:42:31.707Z,15.88
2023-04-30T17:45:11.683Z,15.95
2023-04-30T17:48:13.892Z,16.03
2023-04-30T17:50:56.645Z,15.86
2023-04-30T17:53:42.331Z,15.69
2023-04-30T17:56:29.350Z,15.61
2023-04-30T17:59:13.592Z,15.49
2023-04-30T18:01:48.483Z,15.41
2023-04-30T18:04:36.798Z,15.53
2023-04-30T18:07:19.274Z,15.26
2023-04-30T18:09:55.919Z,15.23
2023-04-30T18:12:54.565Z,15.16
2023-04-30T18:15:22.930Z,15.27
2023-04-30T18:17:56.116Z,15.12
2023-04-30T18:20:29.201Z,15.00
2023-04-30T18:23:16.321Z,15.01
2023-04-30T18:26:19.624Z,14.81
2023-04-30T18:29:15.581Z,14.58
2023-04-30T18:31:44.458Z,14.53
2023-04-30T18:34:28.077Z,14.48
2023-04-30T18:37:03.517Z,14.33
2023-04-30T18:39:48.274Z,14.12
2023-04-30T18:42:32.215Z,14.20
2023-04-30T18:45:05.820Z,13.98
2023-04-30T18:47:47.798Z,14.12
2023-04-30T18:50:20.287Z,14.01
2023-04-30T18:52:55.433Z,13.83
2023-04-30T18:55:37.628Z,13.73
2023-04-30T18:58:32.130Z,13.71
2023-04-30T19:01:05.736Z,13.73
2023-04-30T19:03:45.744Z,13.69
2023-04-30T19:06:35.181Z,13.46
2023-04-30T19:09:16.036Z,13.44
2023-04-30T19:14:53.227Z,13.33
2023-04-30T19:17:26.446Z,13.18
2023-04-30T19:20:05.972Z,13.07
2023-04-30T19:22:53.066Z,13.24
2023-04-30T19:25:45.598Z,13.32
2023-04-30T19:28:14.805Z,13.21
2023-04-30T19:30:41.934Z,13.09
2023-04-30T19:33:09.049Z,13.05
2023-04-30T19:35:35.759Z,12.80
2023-04-30T19:38:02.871Z,12.92
2023-04-30T19:40:29.600Z,12.87
2023-04-30T19:42:56.327Z,12.82
2023-04-30T19:45:23.021Z,12.69
2023-04-30T19:47:49.782Z,12.56
2023-04-30T19:50:16.665Z,12.45
2023-04-30T19:52:43.331Z,12.47
2023-04-30T19:55:10.037Z,12.59
2023-04-30T19:57:36.765Z,12.43
2023-04-30T20:00:04.682Z,12.47
2023-04-30T20:02:31.553Z,12.42
2023-04-30T20:04:58.495Z,12.32
2023-04-30T20:07:25.254Z,12.30
2023-04-30T20:09:51.980Z,12.11
2023-04-30T20:12:18.652Z,12.09
2023-04-30T20:14:45.595Z,11.89
2023-04-30T20:17:13.746Z,11.79
2023-04-30T20:19:40.478Z,11.81
2023-04-30T20:22:13.319Z,11.84
2023-04-30T20:24:44.996Z,11.77
2023-04-30T20:27:12.663Z,11.69
2023-04-30T20:29:42.259Z,11.80
2023-04-30T20:32:09.549Z,11.64
2023-04-30T20:34:37.440Z,11.68
2023-04-30T20:37:05.845Z,11.65
2023-04-30T20:39:32.918Z,11.59
2023-04-30T20:42:00.383Z,11.75
2023-04-30T20:44:27.140Z,11.57
2023-04-30T20:46:53.891Z,11.58
2023-04-30T20:49:20.756Z,11.40
2023-04-30T20:51:47.559Z,11.38
2023-04-30T20:54:14.252Z,11.46
2023-04-30T20:56:41.006Z,11.31
2023-04-30T20:59:07.656Z,11.54
2023-04-30T21:01:34.415Z,11.36
2023-04-30T21:04:01.310Z,11.41
2023-04-30T21:06:28.345Z,11.36
2023-04-30T21:08:55.133Z,11.22
2023-04-30T21:11:21.910Z,11.40
2023-04-30T21:13:51.265Z,11.14
2023-04-30T21:16:18.531Z,11.12
2023-04-30T21:18:46.524Z,11.18
2023-04-30T21:21:13.253Z,11.15
2023-04-30T21:23:40.257Z,11.01
2023-04-30T21:26:07.370Z,10.94
2023-04-30T21:28:34.405Z,10.88
2023-04-30T21:31:08.106Z,10.74
2023-04-30T21:33:36.172Z,10.77
2023-04-30T21:36:03.494Z,10.71
2023-04-30T21:38:30.276Z,10.64
2023-04-30T21:40:57.224Z,10.60
2023-04-30T21:43:24.244Z,10.56
2023-04-30T21:45:50.998Z,10.46
2023-04-30T21:48:17.960Z,10.38
2023-04-30T21:50:44.908Z,10.49
2023-04-30T21:53:11.782Z,10.60
2023-04-30T21:55:38.504Z,10.49
2023-04-30T21:58:05.210Z,10.32
2023-04-30T22:00:32.028Z,10.34
2023-04-30T22:02:58.905Z,10.18
2023-04-30T22:05:26.296Z,10.38
2023-04-30T22:07:53.035Z,10.24
2023-04-30T22:10:20.020Z,10.21
2023-04-30T22:12:47.961Z,10.12
2023-04-30T22:15:14.938Z,10.22
2023-04-30T22:17:41.904Z,9.99
2023-04-30T22:20:10.277Z,10.06
2023-04-30T22:22:36.998Z,9.96
2023-04-30T22:25:04.876Z,9.91
2023-04-30T22:27:32.314Z,10.02
2023-04-30T22:29:59.282Z,10.02
2023-04-30T22:32:26.600Z,10.15
2023-04-30T22:34:53.355Z,10.03
2023-04-30T22:37:20.107Z,9.92
2023-04-30T22:39:48.073Z,9.95
2023-04-30T22:42:15.821Z,9.77
2023-04-30T22:44:42.571Z,9.77
2023-04-30T22:47:09.490Z,9.67
2023-04-30T22:49:37.645Z,9.62
2023-04-30T22:52:04.742Z,9.49
2023-04-30T22:54:31.803Z,9.54
2023-04-30T22:56:58.749Z,9.41
2023-04-30T22:59:25.961Z,9.42
2023-04-30T23:01:52.686Z,9.47
2023-04-30T23:04:19.775Z,9.42
2023-04-30T23:06:46.777Z,9.28
2023-04-30T23:09:15.907Z,9.22
2023-04-30T23:11:42.619Z,9.26
2023-04-30T23:14:09.290Z,9.36
2023-04-30T23:16:36.042Z,9.34
2023-04-30T23:19:02.788Z,9.21
2023-04-30T23:21:29.613Z,9.33
2023-04-30T23:23:56.369Z,9.24
2023-04-30T23:26:23.485Z,9.03
2023-04-30T23:28:50.212Z,9.04
2023-04-30T23:31:18.408Z,8.99
2023-04-30T23:33:45.126Z,9.13
2023-04-30T23:36:11.859Z,8.99
2023-04-30T23:38:38.623Z,8.94
2023-04-30T23:41:05.476Z,8.99
2023-04-30T23:43:33.268Z,8.90
2023-04-30T23:46:00.424Z,8.88
2023-04-30T23:48:27.296Z,9.03
2023-04-30T23:51:04.666Z,9.06
2023-04-30T23:53:31.785Z,8.97
2023-04-30T23:55:59.027Z,8.92
2023-04-30T23:58:26.162Z,8.89
